Nearby METAR Reports

 

EIDW - Dublin Airport, Ireland
Distance from station: NE 54mi, 87km
Updated: 21/10/2018 05:30
Light drizzle, Mostly cloudy
Light drizzle, Mostly cloudy
 Wind from WSW
Wind: WSW 9 km/h
Temperature: 14°C
Dew Point: 13°C
Humidity: 94%
Barometer: 1025 hPa
Summary: Light Drizzle
Clouds: Mostly cloudy
Visibility: 10 km
Cloud details: Few Clouds 457 m
Mostly cloudy 1219 m
2018/10/21 04:30 EIDW 210430Z 24005KT 200V290 9999 -DZ FEW015 BKN040 14/13 Q1025 NOSIG
EINN - Shannon Airport, Ireland
Distance from station: W 73mi, 117km
Updated: 21/10/2018 05:30
Mostly cloudy
Mostly cloudy
 Wind from SSE
Wind: SSE 13 km/h
Temperature: 14°C
Dew Point: 13°C
Humidity: 94%
Barometer: 1025 hPa
Clouds: Mostly cloudy
Visibility: 10 km
Cloud details: Few Clouds 457 m
Mostly cloudy 549 m
2018/10/21 04:30 EINN 210430Z 15007KT 9999 FEW015 BKN018 14/13 Q1025 NOSIG
 
EICK - Cork Arpt/Corcai, Ireland
Distance from station: SW 87mi, 141km
Updated: 21/10/2018 05:30
Light drizzle, Fog, Mostly cloudy
Light drizzle, Fog, Mostly cloudy
 Wind from SW
Wind: SW 19 km/h
Temperature: 12°C
Dew Point: 12°C
Humidity: 100%
Barometer: 1027 hPa
Summary: Light drizzle, Fog
Clouds: Mostly cloudy
Visibility: 1 km
Cloud details: Mostly cloudy 30 m
Mostly cloudy 61 m
2018/10/21 04:30 EICK 210430Z 22010KT 0500 R16/1200N R34/0800N -DZ FG BKN001 BKN002 12/12 Q1027 NOSIG
EIKN - Connaught Apt, Ireland
Distance from station: NW 100mi, 161km
Updated: 20/10/2018 20:00
NOT Current
Overcast
Overcast
 Wind from SSW
Wind: SSW 17 km/h
Temperature: 13°C
Dew Point: 13°C
Humidity: 100%
Barometer: 1027 hPa
Clouds: Overcast
Visibility: 10 km
Cloud details: Overcast 91 m
2018/10/20 19:00 EIKN 201900Z 20009KT 170V240 9999 OVC003 13/13 Q1027 NOSIG
 
EGOV - Valley Raf, United Kingdom
Distance from station: ENE 114mi, 183km
Updated: 21/10/2018 04:50
Overcast
Overcast
 Wind from S
Wind: S 31 km/h
Temperature: 14°C
Dew Point: 12°C
Humidity: 88%
Barometer: 1026 hPa
Clouds: Overcast
Visibility: 10 km
Cloud details: Overcast 213 m
2018/10/21 03:50 EGOV 210350Z AUTO 19017KT 9999 OVC007/// 14/12 Q1026
EGAA - Belfast/Aldergro, United Kingdom
Distance from station: NNE 130mi, 209km
Updated: 21/10/2018 05:50
Overcast
Overcast
 Wind from SSW
Wind: SSW 17 km/h
Temperature: 15°C
Dew Point: 14°C
Humidity: 94%
Barometer: 1023 hPa
Clouds: Overcast
Visibility: 10 km
Cloud details: Overcast 183 m
2018/10/21 04:50 EGAA 210450Z 21009KT 9999 OVC006 15/14 Q1023
 
EGAC - Belfast Harbour, United Kingdom
Distance from station: NNE 134mi, 215km
Updated: 21/10/2018 05:50
Mostly cloudy
Mostly cloudy
 Wind from SSW
Wind: SSW 19 km/h
Temperature: 15°C
Dew Point: 14°C
Humidity: 94%
Barometer: 1022 hPa
Clouds: Mostly cloudy
Visibility: 7 km
Cloud details: Mostly cloudy 305 m
2018/10/21 04:50 EGAC 210450Z AUTO 20010KT 7000 BKN010/// 15/14 Q1022
EGNS - Isle Of Man/Rona, United Kingdom
Distance from station: NE 135mi, 218km
Updated: 21/10/2018 05:50
Light drizzle, Overcast
Light drizzle, Overcast
 Wind from SW
Wind: SW 24 km/h
Temperature: 13°C
Dew Point: 13°C
Humidity: 100%
Barometer: 1024 hPa
Summary: Light Drizzle
Clouds: Overcast
Visibility: 3 km
Cloud details: Overcast 91 m
2018/10/21 04:50 EGNS 210450Z 22013KT 3000 -DZ OVC003 13/13 Q1024